Terminal Aerodrome Forecast
Issued by NWS Houston/Galveston, TX

Home | Current Version | Previous Version | Text Only | Print | Product List | Glossary On
Versions: 1 2 3 4 5 6 7 8 9 10 11 12 13 14 15 16 17 18 19 20 21 22 23 24 25 26
000
FTUS44 KHGX 281120
TAFGLS
TAF
KGLS 281120Z 2812/2912 05008KT P6SM VCSH SCT045 BKN050
     FM281600 05011KT P6SM VCTS BKN035CB OVC100
     FM290000 07008KT P6SM FEW030 BKN120
     FM290500 06007KT P6SM VCSH SCT012 SCT025 BKN100=

USA.gov is the U.S. government's official web portal to all federal, state and local government web resources and services.